Time;durP1;ratioP1;P1;durP2;ratioP2;P2;SDS_P1;SDS_P2;PMS_P1;PMS_P2;Temp;Humidity;BMP_temperature;BMP_pressure;BME280_temperature;BME280_humidity;BME280_pressure;Samples;Min_cycle;Max_cycle;Signal;HPM_P1;HPM_P2
2022/03/10 00:00:43;;;;;;;32.00;17.77;;;;;;;;;;5065367;28;20111;-72
2022/03/10 00:03:08;;;;;;;25.77;15.27;;;;;;;;;;5085239;28;20020;-74
2022/03/10 00:05:34;;;;;;;21.50;14.07;;;;;;;;;;5084849;28;20442;-71
2022/03/10 00:07:59;;;;;;;21.50;13.68;;;;;;;;;;5084291;28;20032;-71
2022/03/10 00:10:25;;;;;;;21.08;12.50;;;;;;;;;;5084983;28;20115;-72
2022/03/10 00:12:51;;;;;;;21.00;14.20;;;;;;;;;;5084402;28;20047;-73
2022/03/10 00:15:19;;;;;;;22.70;14.88;;;;;;;;;;5083947;28;20040;-71
2022/03/10 00:17:45;;;;;;;35.20;21.85;;;;;;;;;;5086057;28;20084;-72
2022/03/10 00:20:10;;;;;;;24.80;16.02;;;;;;;;;;5084958;28;20040;-72
2022/03/10 00:22:46;;;;;;;20.45;13.13;;;;;;;;;;5084840;28;20024;-72
2022/03/10 00:25:11;;;;;;;22.55;14.88;;;;;;;;;;5083945;28;20446;-72
2022/03/10 00:27:37;;;;;;;23.92;15.27;;;;;;;;;;5085729;28;20024;-72
2022/03/10 00:30:02;;;;;;;21.67;14.10;;;;;;;;;;5083250;28;20032;-72
2022/03/10 00:32:28;;;;;;;18.02;13.13;;;;;;;;;;5083198;28;20034;-72
2022/03/10 00:34:53;;;;;;;20.90;14.70;;;;;;;;;;5077091;28;20088;-72
2022/03/10 00:37:19;;;;;;;20.23;14.30;;;;;;;;;;5075854;28;20030;-72
2022/03/10 00:39:44;;;;;;;26.85;17.17;;;;;;;;;;5075044;28;20024;-72
2022/03/10 00:42:09;;;;;;;23.38;15.40;;;;;;;;;;5083544;28;20032;-73
2022/03/10 00:44:35;;;;;;;23.63;15.32;;;;;;;;;;5072003;28;20038;-72
2022/03/10 00:47:00;;;;;;;29.55;19.27;;;;;;;;;;5074885;28;20028;-72
2022/03/10 00:49:26;;;;;;;93.55;54.95;;;;;;;;;;5081409;28;20034;-72
2022/03/10 00:51:51;;;;;;;138.23;79.97;;;;;;;;;;5080891;28;20449;-72
2022/03/10 00:54:17;;;;;;;99.10;53.88;;;;;;;;;;5078752;28;20671;-73
2022/03/10 00:56:42;;;;;;;72.45;43.17;;;;;;;;;;5074891;28;20350;-72
2022/03/10 00:59:07;;;;;;;53.45;32.85;;;;;;;;;;5083199;28;20085;-72
2022/03/10 01:01:33;;;;;;;105.13;60.80;;;;;;;;;;5082954;28;20042;-71
2022/03/10 01:03:58;;;;;;;61.67;38.95;;;;;;;;;;5082561;28;20028;-72
2022/03/10 01:06:23;;;;;;;63.55;40.17;;;;;;;;;;5083499;28;20101;-72
2022/03/10 01:08:49;;;;;;;57.90;35.42;;;;;;;;;;5085171;28;20085;-71
2022/03/10 01:11:14;;;;;;;61.72;36.30;;;;;;;;;;5085095;28;20024;-72
2022/03/10 01:13:39;;;;;;;63.00;37.15;;;;;;;;;;5083391;28;20127;-72
2022/03/10 01:16:05;;;;;;;48.78;30.38;;;;;;;;;;5084195;28;20459;-73
2022/03/10 01:18:30;;;;;;;58.47;33.22;;;;;;;;;;5084063;28;20028;-72
2022/03/10 01:20:55;;;;;;;59.10;35.22;;;;;;;;;;5084386;28;20020;-73
2022/03/10 01:23:21;;;;;;;44.45;27.80;;;;;;;;;;5082537;28;20370;-72
2022/03/10 01:25:46;;;;;;;27.83;18.63;;;;;;;;;;5084652;28;20032;-72
2022/03/10 01:28:12;;;;;;;33.47;20.85;;;;;;;;;;5081487;28;20540;-72
2022/03/10 01:30:37;;;;;;;28.13;18.05;;;;;;;;;;5083295;28;20128;-71
2022/03/10 01:33:02;;;;;;;53.83;32.47;;;;;;;;;;5082180;28;20060;-71
2022/03/10 01:35:28;;;;;;;33.25;21.02;;;;;;;;;;5083152;28;20103;-72
2022/03/10 01:37:53;;;;;;;48.78;29.92;;;;;;;;;;5085824;28;20032;-73
2022/03/10 01:40:19;;;;;;;36.53;22.67;;;;;;;;;;5082319;28;20030;-73
2022/03/10 01:42:44;;;;;;;30.35;20.40;;;;;;;;;;5083997;28;20028;-71
2022/03/10 01:45:11;;;;;;;35.05;21.20;;;;;;;;;;5083654;28;20036;-72
2022/03/10 01:47:37;;;;;;;30.70;20.10;;;;;;;;;;5081122;28;20078;-72
2022/03/10 01:50:02;;;;;;;31.08;20.63;;;;;;;;;;5082852;28;20095;-71
2022/03/10 01:52:27;;;;;;;32.05;20.08;;;;;;;;;;5073157;28;20410;-73
2022/03/10 01:54:53;;;;;;;29.65;19.92;;;;;;;;;;5071544;28;20418;-72
2022/03/10 01:57:19;;;;;;;30.92;21.25;;;;;;;;;;5079631;28;20028;-73
2022/03/10 01:59:44;;;;;;;34.78;22.48;;;;;;;;;;5082464;28;20032;-74
2022/03/10 02:02:10;;;;;;;37.15;22.90;;;;;;;;;;5082655;28;20102;-72
2022/03/10 02:04:35;;;;;;;33.40;21.08;;;;;;;;;;5082490;28;20055;-72
2022/03/10 02:07:03;;;;;;;28.73;19.77;;;;;;;;;;5082581;28;20047;-72
2022/03/10 02:12:12;;;;;;;31.02;20.33;;;;;;;;;;5082030;28;20109;-72
2022/03/10 02:17:21;;;;;;;27.73;19.10;;;;;;;;;;5071932;28;20058;-72
2022/03/10 02:19:57;;;;;;;29.77;19.13;;;;;;;;;;5077669;28;20721;-73
2022/03/10 02:22:23;;;;;;;26.60;18.00;;;;;;;;;;5084447;28;20027;-72
2022/03/10 02:24:49;;;;;;;26.02;16.98;;;;;;;;;;5083678;28;20165;-72
2022/03/10 02:27:19;;;;;;;28.60;18.00;;;;;;;;;;5080736;28;20126;-72
2022/03/10 02:29:45;;;;;;;32.72;21.50;;;;;;;;;;5081856;28;20031;-72
2022/03/10 02:32:11;;;;;;;30.60;18.52;;;;;;;;;;5082633;28;20016;-72
2022/03/10 02:34:37;;;;;;;30.17;18.77;;;;;;;;;;5071801;28;20024;-72
2022/03/10 02:37:03;;;;;;;25.48;17.90;;;;;;;;;;5081575;28;20051;-72
2022/03/10 02:39:29;;;;;;;36.47;23.23;;;;;;;;;;5076943;28;20031;-72
2022/03/10 02:41:54;;;;;;;34.80;21.33;;;;;;;;;;5071141;28;20034;-72
2022/03/10 02:44:20;;;;;;;33.42;21.15;;;;;;;;;;5076772;28;20032;-72
2022/03/10 02:46:45;;;;;;;29.15;18.58;;;;;;;;;;5082369;28;20032;-72
2022/03/10 02:49:10;;;;;;;25.65;17.38;;;;;;;;;;5081268;28;20215;-71
2022/03/10 02:51:36;;;;;;;23.58;16.63;;;;;;;;;;5082673;28;20085;-72
2022/03/10 02:54:01;;;;;;;27.83;18.25;;;;;;;;;;5081226;28;20521;-71
2022/03/10 02:56:27;;;;;;;38.88;24.08;;;;;;;;;;5081992;28;20030;-72
2022/03/10 02:58:52;;;;;;;41.45;24.48;;;;;;;;;;5081487;28;20063;-72
2022/03/10 03:01:17;;;;;;;49.45;28.15;;;;;;;;;;5080965;28;20024;-72
2022/03/10 03:03:43;;;;;;;41.00;25.98;;;;;;;;;;5081209;28;20043;-72
2022/03/10 03:06:08;;;;;;;42.38;25.67;;;;;;;;;;5080618;28;20390;-72
2022/03/10 03:08:34;;;;;;;48.53;27.75;;;;;;;;;;5073900;28;20025;-71
2022/03/10 03:10:59;;;;;;;39.80;25.40;;;;;;;;;;5082754;28;20119;-72
2022/03/10 03:13:25;;;;;;;41.65;25.23;;;;;;;;;;5081310;28;20155;-72
2022/03/10 03:15:50;;;;;;;45.20;27.45;;;;;;;;;;5083190;28;20020;-72
2022/03/10 03:18:16;;;;;;;43.30;26.70;;;;;;;;;;5080638;28;20520;-72
2022/03/10 03:20:41;;;;;;;40.38;25.30;;;;;;;;;;5081347;28;20028;-72
2022/03/10 03:23:07;;;;;;;27.90;17.40;;;;;;;;;;5081321;28;20093;-72
2022/03/10 03:25:32;;;;;;;23.08;15.23;;;;;;;;;;5078614;28;20102;-72
2022/03/10 03:27:57;;;;;;;24.05;15.15;;;;;;;;;;5073596;28;20032;-72
2022/03/10 03:30:23;;;;;;;25.38;15.95;;;;;;;;;;5075125;28;20076;-71
2022/03/10 03:32:48;;;;;;;30.55;19.40;;;;;;;;;;5076379;28;20028;-72
2022/03/10 03:35:14;;;;;;;34.97;20.02;;;;;;;;;;5057557;28;20028;-72
2022/03/10 03:37:39;;;;;;;35.13;21.35;;;;;;;;;;5080866;28;20012;-72
2022/03/10 03:40:04;;;;;;;35.20;20.90;;;;;;;;;;5084637;28;20024;-72
2022/03/10 03:42:34;;;;;;;29.38;19.48;;;;;;;;;;5079522;28;20024;-73
2022/03/10 03:44:59;;;;;;;32.65;19.77;;;;;;;;;;5073576;28;20027;-71
2022/03/10 03:47:25;;;;;;;27.08;16.98;;;;;;;;;;5073527;28;20043;-73
2022/03/10 03:49:50;;;;;;;24.13;15.40;;;;;;;;;;5085843;28;20077;-72
2022/03/10 03:52:15;;;;;;;25.10;15.75;;;;;;;;;;5085755;28;20028;-73
2022/03/10 03:54:41;;;;;;;24.65;15.75;;;;;;;;;;5083873;28;20525;-72
2022/03/10 03:57:06;;;;;;;26.02;16.00;;;;;;;;;;5086392;28;20040;-72
2022/03/10 03:59:31;;;;;;;22.73;14.80;;;;;;;;;;5086237;28;20035;-72
2022/03/10 04:01:57;;;;;;;23.23;15.35;;;;;;;;;;5086654;28;20032;-72
2022/03/10 04:04:22;;;;;;;22.23;13.88;;;;;;;;;;5085104;28;20470;-71
2022/03/10 04:06:48;;;;;;;24.85;15.68;;;;;;;;;;5080463;28;20092;-72
2022/03/10 04:09:13;;;;;;;24.90;15.77;;;;;;;;;;5085380;28;20488;-72
2022/03/10 04:11:39;;;;;;;26.95;16.85;;;;;;;;;;5087016;28;20020;-72
2022/03/10 04:14:04;;;;;;;30.70;18.35;;;;;;;;;;5083423;28;20134;-72
2022/03/10 04:16:29;;;;;;;36.22;22.55;;;;;;;;;;5085485;28;20078;-71
2022/03/10 04:18:55;;;;;;;33.50;21.52;;;;;;;;;;5084576;28;20019;-71
2022/03/10 04:21:20;;;;;;;38.50;23.85;;;;;;;;;;5083843;28;20031;-73
2022/03/10 04:23:45;;;;;;;39.58;23.63;;;;;;;;;;5085293;28;20454;-71
2022/03/10 04:26:11;;;;;;;52.33;29.48;;;;;;;;;;5075386;28;20031;-72
2022/03/10 04:28:36;;;;;;;44.15;25.55;;;;;;;;;;5077223;28;20020;-71
2022/03/10 04:31:02;;;;;;;45.15;25.13;;;;;;;;;;5083711;28;20028;-72
2022/03/10 04:33:27;;;;;;;35.47;22.65;;;;;;;;;;5083184;28;20462;-72
2022/03/10 04:35:53;;;;;;;47.00;27.85;;;;;;;;;;5077771;28;20054;-72
2022/03/10 04:38:19;;;;;;;44.90;27.40;;;;;;;;;;5079490;28;20032;-73
2022/03/10 04:40:44;;;;;;;42.42;25.52;;;;;;;;;;5078472;28;20024;-72
2022/03/10 04:43:10;;;;;;;40.33;24.67;;;;;;;;;;5074430;28;21049;-72
2022/03/10 04:45:35;;;;;;;37.78;23.33;;;;;;;;;;5071340;28;20034;-71
2022/03/10 04:48:02;;;;;;;34.40;21.52;;;;;;;;;;5077728;28;20077;-72
2022/03/10 04:50:29;;;;;;;36.85;22.90;;;;;;;;;;5082459;28;20024;-72
2022/03/10 04:52:54;;;;;;;37.20;24.27;;;;;;;;;;5084121;28;20482;-73
2022/03/10 04:55:19;;;;;;;43.67;24.08;;;;;;;;;;5085592;28;20089;-72
2022/03/10 04:57:45;;;;;;;227.35;89.00;;;;;;;;;;5085038;28;20024;-72
2022/03/10 05:00:11;;;;;;;98.85;43.38;;;;;;;;;;5083728;28;20040;-72
2022/03/10 05:02:39;;;;;;;46.50;27.40;;;;;;;;;;5084499;28;20038;-73
2022/03/10 05:05:06;;;;;;;34.60;21.10;;;;;;;;;;5085760;28;20094;-71
2022/03/10 05:07:31;;;;;;;37.47;21.33;;;;;;;;;;5083730;28;20020;-72
2022/03/10 05:09:58;;;;;;;38.08;19.48;;;;;;;;;;5075514;28;20028;-71
2022/03/10 05:12:23;;;;;;;66.43;35.78;;;;;;;;;;5073004;28;20043;-72
2022/03/10 05:14:48;;;;;;;114.05;55.08;;;;;;;;;;5073667;28;20043;-73
2022/03/10 05:17:14;;;;;;;146.23;70.70;;;;;;;;;;5070702;28;20028;-72
2022/03/10 05:19:39;;;;;;;65.43;34.30;;;;;;;;;;5080623;28;20603;-70
2022/03/10 05:22:05;;;;;;;173.07;93.10;;;;;;;;;;5060800;28;20031;-70
2022/03/10 05:24:30;;;;;;;79.85;43.42;;;;;;;;;;5081268;28;20044;-70
2022/03/10 05:26:57;;;;;;;64.32;36.55;;;;;;;;;;5078969;28;20063;-70
2022/03/10 05:29:22;;;;;;;68.30;36.88;;;;;;;;;;5070559;28;20439;-72
2022/03/10 05:31:48;;;;;;;49.58;31.40;;;;;;;;;;5080914;28;20085;-71
2022/03/10 05:34:13;;;;;;;34.78;21.48;;;;;;;;;;5079268;28;20072;-73
2022/03/10 05:36:39;;;;;;;35.90;23.40;;;;;;;;;;5073527;28;20031;-73
2022/03/10 05:39:07;;;;;;;51.42;34.92;;;;;;;;;;5074659;28;20027;-71
2022/03/10 05:41:33;;;;;;;38.03;24.50;;;;;;;;;;5072618;28;20020;-71
2022/03/10 05:43:58;;;;;;;104.72;52.42;;;;;;;;;;5058893;28;20043;-72
2022/03/10 05:46:24;;;;;;;38.40;22.50;;;;;;;;;;5074773;28;20099;-69
2022/03/10 05:48:49;;;;;;;39.10;23.08;;;;;;;;;;5083200;28;20023;-72
2022/03/10 05:51:14;;;;;;;41.47;24.80;;;;;;;;;;5074072;28;20070;-71
2022/03/10 05:53:40;;;;;;;44.60;27.05;;;;;;;;;;5076501;28;20047;-72
2022/03/10 05:56:05;;;;;;;49.17;28.65;;;;;;;;;;5081107;28;20442;-69
2022/03/10 05:58:31;;;;;;;50.85;29.95;;;;;;;;;;5075961;28;20107;-71
2022/03/10 06:00:56;;;;;;;54.63;30.85;;;;;;;;;;5082228;28;20038;-72
2022/03/10 06:03:21;;;;;;;56.08;32.83;;;;;;;;;;5081536;28;20043;-71
2022/03/10 06:05:47;;;;;;;67.72;36.63;;;;;;;;;;5080172;28;20084;-71
2022/03/10 06:08:12;;;;;;;61.95;35.17;;;;;;;;;;5074711;28;20057;-72
2022/03/10 06:10:37;;;;;;;59.20;36.13;;;;;;;;;;5072941;28;23416;-69
2022/03/10 06:13:03;;;;;;;94.55;50.50;;;;;;;;;;5074435;28;20108;-71
2022/03/10 06:15:29;;;;;;;60.65;33.80;;;;;;;;;;5072101;28;20054;-69
2022/03/10 06:17:54;;;;;;;44.17;25.13;;;;;;;;;;5078426;28;20138;-69
2022/03/10 06:20:20;;;;;;;38.92;22.35;;;;;;;;;;5073538;28;20039;-70
2022/03/10 06:22:46;;;;;;;66.88;37.58;;;;;;;;;;5072639;28;20438;-70
2022/03/10 06:25:11;;;;;;;60.70;33.03;;;;;;;;;;5071322;28;20032;-71
2022/03/10 06:27:37;;;;;;;57.05;31.90;;;;;;;;;;5080592;28;20020;-70
2022/03/10 06:30:02;;;;;;;87.47;44.70;;;;;;;;;;5081135;28;20077;-72
2022/03/10 06:32:28;;;;;;;54.95;30.02;;;;;;;;;;5072194;28;20043;-72
2022/03/10 06:34:56;;;;;;;50.45;26.02;;;;;;;;;;5080897;28;20085;-69
2022/03/10 06:37:21;;;;;;;103.50;50.15;;;;;;;;;;5082844;28;20023;-69
2022/03/10 06:39:47;;;;;;;229.32;94.30;;;;;;;;;;5082585;28;20450;-70
2022/03/10 06:42:12;;;;;;;620.80;295.27;;;;;;;;;;5083881;28;20043;-72
2022/03/10 06:44:38;;;;;;;129.25;54.00;;;;;;;;;;5082016;28;20114;-71
2022/03/10 06:47:04;;;;;;;125.78;55.20;;;;;;;;;;5082040;28;20032;-71
2022/03/10 06:49:29;;;;;;;57.83;27.42;;;;;;;;;;5082263;28;20028;-71
2022/03/10 06:51:55;;;;;;;72.38;32.97;;;;;;;;;;5081892;28;20084;-71
2022/03/10 06:54:20;;;;;;;46.10;23.67;;;;;;;;;;5082000;28;20106;-71
2022/03/10 06:56:46;;;;;;;36.13;19.98;;;;;;;;;;5083150;28;20334;-71
2022/03/10 06:59:11;;;;;;;39.90;20.77;;;;;;;;;;5083657;28;20032;-71
2022/03/10 07:01:36;;;;;;;41.42;23.88;;;;;;;;;;5081202;28;20047;-71
2022/03/10 07:04:02;;;;;;;45.90;25.77;;;;;;;;;;5080083;28;20031;-71
2022/03/10 07:06:27;;;;;;;61.58;28.33;;;;;;;;;;5082197;28;20028;-71
2022/03/10 07:08:53;;;;;;;103.90;40.10;;;;;;;;;;5081974;28;20020;-71
2022/03/10 07:11:19;;;;;;;205.18;82.00;;;;;;;;;;5065198;28;20081;-71
2022/03/10 07:13:44;;;;;;;80.40;35.58;;;;;;;;;;5083810;28;20051;-71
2022/03/10 07:16:10;;;;;;;44.88;25.38;;;;;;;;;;5087489;28;20391;-71
2022/03/10 07:18:36;;;;;;;57.63;27.25;;;;;;;;;;5086705;28;20051;-71
2022/03/10 07:21:02;;;;;;;34.45;17.17;;;;;;;;;;5084955;28;20097;-71
2022/03/10 07:23:28;;;;;;;41.17;22.40;;;;;;;;;;5084324;28;20084;-71
2022/03/10 07:25:54;;;;;;;52.45;26.25;;;;;;;;;;5086795;28;20020;-71
2022/03/10 07:28:19;;;;;;;38.60;21.08;;;;;;;;;;5084899;28;20031;-70
2022/03/10 07:30:45;;;;;;;38.90;19.67;;;;;;;;;;5084256;28;20027;-71
2022/03/10 07:33:10;;;;;;;42.25;22.63;;;;;;;;;;5085108;28;20385;-71
2022/03/10 07:35:36;;;;;;;58.60;30.30;;;;;;;;;;5087174;28;20035;-71
2022/03/10 07:38:01;;;;;;;56.00;26.77;;;;;;;;;;5087086;28;20067;-70
2022/03/10 07:40:27;;;;;;;42.83;22.02;;;;;;;;;;5085316;28;20024;-71
2022/03/10 07:42:52;;;;;;;30.33;17.98;;;;;;;;;;5083968;28;20020;-71
2022/03/10 07:45:17;;;;;;;29.70;17.10;;;;;;;;;;5086410;28;20061;-71
2022/03/10 07:47:43;;;;;;;34.85;21.35;;;;;;;;;;5085700;28;20028;-71
2022/03/10 07:50:08;;;;;;;34.53;21.45;;;;;;;;;;5085053;28;20097;-72
2022/03/10 07:52:34;;;;;;;53.97;30.13;;;;;;;;;;5083673;28;20442;-71
2022/03/10 07:54:59;;;;;;;64.72;34.25;;;;;;;;;;5083382;28;20032;-73
2022/03/10 07:57:25;;;;;;;136.00;54.03;;;;;;;;;;5086486;28;20028;-71
2022/03/10 07:59:51;;;;;;;97.70;33.50;;;;;;;;;;5085829;28;20111;-72
2022/03/10 08:02:17;;;;;;;195.70;65.22;;;;;;;;;;5085331;28;20394;-71
2022/03/10 08:04:42;;;;;;;107.28;41.08;;;;;;;;;;5085918;28;20038;-71
2022/03/10 08:07:08;;;;;;;102.47;41.80;;;;;;;;;;5083435;28;20016;-70
2022/03/10 08:09:35;;;;;;;126.00;47.83;;;;;;;;;;5083871;28;20026;-71
2022/03/10 08:12:00;;;;;;;44.38;22.88;;;;;;;;;;5084712;28;20054;-71
2022/03/10 08:14:25;;;;;;;48.08;26.83;;;;;;;;;;5083758;28;20455;-71
2022/03/10 08:16:51;;;;;;;41.42;24.90;;;;;;;;;;5082839;28;20039;-72
2022/03/10 08:19:17;;;;;;;40.85;26.90;;;;;;;;;;5084629;28;20086;-70
2022/03/10 08:21:43;;;;;;;49.58;30.48;;;;;;;;;;5083881;28;20036;-71
2022/03/10 08:24:08;;;;;;;60.38;34.67;;;;;;;;;;5083661;28;20104;-72
2022/03/10 08:26:34;;;;;;;55.88;31.75;;;;;;;;;;5084085;28;20078;-71
2022/03/10 08:28:59;;;;;;;42.35;24.55;;;;;;;;;;5084586;28;20024;-72
2022/03/10 08:31:24;;;;;;;48.72;29.25;;;;;;;;;;5084136;28;20039;-71
2022/03/10 08:33:51;;;;;;;45.83;26.83;;;;;;;;;;5084219;28;20040;-71
2022/03/10 08:36:16;;;;;;;51.83;29.17;;;;;;;;;;5083768;28;20072;-69
2022/03/10 08:38:42;;;;;;;66.18;38.28;;;;;;;;;;5083766;28;20449;-69
2022/03/10 08:41:08;;;;;;;61.30;33.88;;;;;;;;;;5084407;28;20024;-69
2022/03/10 08:43:33;;;;;;;41.60;24.17;;;;;;;;;;5082248;28;20040;-71
2022/03/10 08:46:01;;;;;;;46.97;27.60;;;;;;;;;;5082932;28;20028;-71
2022/03/10 08:48:27;;;;;;;37.30;23.02;;;;;;;;;;5083499;28;20080;-69
2022/03/10 08:50:52;;;;;;;45.67;25.73;;;;;;;;;;5084648;28;20343;-69
2022/03/10 08:53:18;;;;;;;38.63;23.80;;;;;;;;;;5083874;28;20036;-69
2022/03/10 08:55:43;;;;;;;29.13;18.52;;;;;;;;;;5082110;28;20032;-70
2022/03/10 08:58:09;;;;;;;42.53;25.27;;;;;;;;;;5085138;28;20035;-70
2022/03/10 09:00:34;;;;;;;30.08;18.98;;;;;;;;;;5082421;28;20102;-71
2022/03/10 09:03:00;;;;;;;17.40;10.88;;;;;;;;;;5084015;28;20023;-69
2022/03/10 09:05:26;;;;;;;28.05;17.20;;;;;;;;;;5084052;28;20514;-70
2022/03/10 09:07:51;;;;;;;29.77;17.80;;;;;;;;;;5083010;28;20115;-69
2022/03/10 09:10:17;;;;;;;56.20;31.92;;;;;;;;;;5083949;28;20023;-70
2022/03/10 09:12:42;;;;;;;28.50;16.05;;;;;;;;;;5083394;28;20048;-72
2022/03/10 09:15:08;;;;;;;38.83;25.65;;;;;;;;;;5082347;28;20043;-70
2022/03/10 09:17:33;;;;;;;25.63;15.43;;;;;;;;;;5083152;28;20024;-72
2022/03/10 09:19:59;;;;;;;19.35;12.52;;;;;;;;;;5083738;28;20350;-70
2022/03/10 09:22:25;;;;;;;44.75;24.77;;;;;;;;;;5084190;28;20031;-69
2022/03/10 09:24:51;;;;;;;29.98;18.92;;;;;;;;;;5082801;28;20028;-72
2022/03/10 09:27:16;;;;;;;38.15;26.05;;;;;;;;;;5068281;28;20020;-70
2022/03/10 09:29:42;;;;;;;32.83;20.50;;;;;;;;;;5083728;28;20039;-70
2022/03/10 09:32:08;;;;;;;48.80;27.48;;;;;;;;;;5083410;28;20052;-71
2022/03/10 09:34:33;;;;;;;56.00;28.27;;;;;;;;;;5081991;28;20032;-72
2022/03/10 09:36:58;;;;;;;19.15;9.27;;;;;;;;;;5066420;28;20028;-70
2022/03/10 09:39:24;;;;;;;49.17;22.83;;;;;;;;;;5084163;28;20039;-69
2022/03/10 09:41:49;;;;;;;29.80;15.93;;;;;;;;;;5083213;28;20028;-71
2022/03/10 09:44:19;;;;;;;26.83;15.90;;;;;;;;;;5083278;28;20032;-72
2022/03/10 09:46:47;;;;;;;18.38;12.55;;;;;;;;;;5083337;28;20036;-72
2022/03/10 09:49:12;;;;;;;12.85;9.02;;;;;;;;;;5082468;28;20052;-72
2022/03/10 09:51:38;;;;;;;32.85;21.92;;;;;;;;;;5068397;28;20431;-70
2022/03/10 09:54:03;;;;;;;16.90;10.05;;;;;;;;;;5064866;28;20039;-71
2022/03/10 09:56:28;;;;;;;33.28;18.27;;;;;;;;;;5083003;28;20380;-69
2022/03/10 09:58:54;;;;;;;52.10;26.50;;;;;;;;;;5083432;28;20040;-69
2022/03/10 10:01:19;;;;;;;40.35;22.33;;;;;;;;;;5083431;28;20358;-70
2022/03/10 10:03:44;;;;;;;23.55;16.85;;;;;;;;;;5084405;28;20031;-70
2022/03/10 10:06:10;;;;;;;16.20;11.00;;;;;;;;;;5082675;28;20032;-71
2022/03/10 10:08:38;;;;;;;30.15;18.20;;;;;;;;;;5083064;28;20027;-70
2022/03/10 10:11:04;;;;;;;23.08;14.88;;;;;;;;;;5085898;28;20744;-72
2022/03/10 10:13:29;;;;;;;15.38;10.68;;;;;;;;;;5082083;28;20040;-72
2022/03/10 10:15:55;;;;;;;16.02;10.95;;;;;;;;;;5084576;28;20032;-71
2022/03/10 10:18:21;;;;;;;14.80;9.52;;;;;;;;;;5084626;28;20027;-70
2022/03/10 10:20:47;;;;;;;21.98;15.43;;;;;;;;;;5081773;28;20489;-71
2022/03/10 10:23:15;;;;;;;19.73;14.20;;;;;;;;;;5082852;28;20028;-71
2022/03/10 10:25:51;;;;;;;55.55;31.60;;;;;;;;;;5084292;28;20129;-70
2022/03/10 10:28:27;;;;;;;30.05;15.55;;;;;;;;;;5082126;28;20015;-71
2022/03/10 10:30:53;;;;;;;12.95;8.32;;;;;;;;;;5083221;28;20454;-71
2022/03/10 10:33:19;;;;;;;19.30;13.65;;;;;;;;;;5082751;28;20031;-71
2022/03/10 10:35:45;;;;;;;19.05;13.75;;;;;;;;;;5081879;28;20081;-69
2022/03/10 10:38:12;;;;;;;30.95;19.15;;;;;;;;;;5084065;28;20012;-71
2022/03/10 10:40:38;;;;;;;25.33;15.82;;;;;;;;;;5082468;28;20505;-70
2022/03/10 10:43:03;;;;;;;26.02;15.20;;;;;;;;;;5082171;28;20123;-70
2022/03/10 10:45:33;;;;;;;32.90;18.58;;;;;;;;;;5082944;28;20032;-70
2022/03/10 10:47:58;;;;;;;49.05;25.08;;;;;;;;;;5087431;28;20799;-69
2022/03/10 10:50:24;;;;;;;59.25;33.10;;;;;;;;;;5087595;28;20036;-71
2022/03/10 10:52:49;;;;;;;53.90;27.50;;;;;;;;;;5086108;28;20030;-72
2022/03/10 10:55:14;;;;;;;33.20;18.15;;;;;;;;;;5085182;28;20104;-70
2022/03/10 10:57:40;;;;;;;29.98;20.35;;;;;;;;;;5085900;28;20040;-71
2022/03/10 11:00:05;;;;;;;30.38;19.63;;;;;;;;;;5085976;28;20024;-71
2022/03/10 11:02:31;;;;;;;33.47;19.83;;;;;;;;;;5086654;28;20016;-70
2022/03/10 11:04:58;;;;;;;22.52;12.80;;;;;;;;;;5084463;28;20028;-71
2022/03/10 11:07:23;;;;;;;20.77;12.75;;;;;;;;;;5086354;28;20016;-74
2022/03/10 11:09:49;;;;;;;51.53;26.25;;;;;;;;;;5085269;28;20034;-71
2022/03/10 11:12:16;;;;;;;49.10;20.48;;;;;;;;;;5086055;28;20048;-71
2022/03/10 11:14:42;;;;;;;55.92;26.90;;;;;;;;;;5085429;28;20518;-73
2022/03/10 11:17:08;;;;;;;31.60;18.25;;;;;;;;;;5087110;28;20108;-70
2022/03/10 11:19:35;;;;;;;71.70;41.70;;;;;;;;;;5087631;28;20036;-71
2022/03/10 11:22:04;;;;;;;41.33;22.40;;;;;;;;;;5087584;28;20031;-73
2022/03/10 11:24:32;;;;;;;23.73;13.70;;;;;;;;;;5084585;28;20039;-71
2022/03/10 11:27:16;;;;;;;35.38;19.90;;;;;;;;;;5084146;28;20458;-72
2022/03/10 11:29:44;;;;;;;54.97;23.58;;;;;;;;;;5087083;28;20027;-72
2022/03/10 11:32:10;;;;;;;25.23;13.95;;;;;;;;;;5085968;28;20032;-72
2022/03/10 11:34:46;;;;;;;21.75;11.80;;;;;;;;;;5087537;28;20027;-72
2022/03/10 11:37:11;;;;;;;18.00;10.15;;;;;;;;;;5088355;28;20026;-72
2022/03/10 11:40:02;;;;;;;21.67;12.90;;;;;;;;;;5085626;28;20102;-72
2022/03/10 11:42:29;;;;;;;18.83;12.27;;;;;;;;;;5082414;28;20040;-73
2022/03/10 11:45:11;;;;;;;25.38;15.45;;;;;;;;;;5086430;28;20883;-71
2022/03/10 11:47:37;;;;;;;40.38;20.70;;;;;;;;;;5086924;28;20019;-72
2022/03/10 11:50:20;;;;;;;21.15;11.45;;;;;;;;;;5087188;28;20031;-71
2022/03/10 11:52:50;;;;;;;21.58;13.82;;;;;;;;;;5086435;28;20086;-71
2022/03/10 11:55:15;;;;;;;16.23;10.35;;;;;;;;;;5087911;28;20381;-71
2022/03/10 11:57:41;;;;;;;18.65;12.65;;;;;;;;;;5082678;28;20028;-70
2022/03/10 12:00:07;;;;;;;19.33;12.85;;;;;;;;;;5085376;28;20378;-71
2022/03/10 12:02:43;;;;;;;12.45;7.70;;;;;;;;;;5084626;28;20754;-71
2022/03/10 12:05:09;;;;;;;11.88;8.25;;;;;;;;;;5083841;28;20349;-71
2022/03/10 12:07:35;;;;;;;29.55;18.25;;;;;;;;;;5084516;28;20034;-72
2022/03/10 12:10:05;;;;;;;8.07;5.45;;;;;;;;;;5084866;28;20032;-72
2022/03/10 12:12:34;;;;;;;14.55;9.25;;;;;;;;;;5082836;28;20521;-72
2022/03/10 12:15:01;;;;;;;;;;;;;;;;;;5087466;28;20110;-72
2022/03/10 12:17:48;;;;;;;27.35;16.33;;;;;;;;;;5076853;28;19927;-71
2022/03/10 12:20:15;;;;;;;10.75;7.78;;;;;;;;;;5074615;28;20028;-75
2022/03/10 12:23:00;;;;;;;10.68;8.18;;;;;;;;;;5084720;28;20461;-70
2022/03/10 12:25:26;;;;;;;9.50;6.50;;;;;;;;;;5078198;28;20036;-71
2022/03/10 12:27:52;;;;;;;9.63;6.55;;;;;;;;;;5084243;28;20050;-71
2022/03/10 12:30:19;;;;;;;10.63;6.07;;;;;;;;;;5087525;28;20038;-74
2022/03/10 12:32:47;;;;;;;9.55;6.28;;;;;;;;;;5084318;28;20078;-70
2022/03/10 12:35:13;;;;;;;12.70;7.57;;;;;;;;;;5082991;28;20039;-72
2022/03/10 12:37:45;;;;;;;7.45;5.28;;;;;;;;;;5085167;28;20032;-71
2022/03/10 12:40:16;;;;;;;9.55;6.75;;;;;;;;;;5084279;28;20024;-71
2022/03/10 12:42:41;;;;;;;11.82;6.50;;;;;;;;;;5084395;28;20032;-72
2022/03/10 12:45:07;;;;;;;11.63;7.00;;;;;;;;;;5082297;28;20193;-71
2022/03/10 12:47:33;;;;;;;14.95;9.23;;;;;;;;;;5085344;28;20020;-69
2022/03/10 12:49:59;;;;;;;16.33;8.77;;;;;;;;;;5084458;28;20084;-71
2022/03/10 12:52:27;;;;;;;24.33;16.10;;;;;;;;;;5081347;28;20024;-72
2022/03/10 12:54:56;;;;;;;22.77;11.60;;;;;;;;;;5077580;28;20055;-74
2022/03/10 12:57:21;;;;;;;7.05;4.45;;;;;;;;;;5084344;28;20067;-75
2022/03/10 12:59:48;;;;;;;6.65;5.30;;;;;;;;;;5075645;28;20090;-75
2022/03/10 13:02:18;;;;;;;8.60;7.43;;;;;;;;;;5077395;28;20092;-75
2022/03/10 13:04:43;;;;;;;;;;;;;;;;;;5075343;28;20123;-75
2022/03/10 13:07:12;;;;;;;8.63;7.63;;;;;;;;;;5072670;28;20003;-76
2022/03/10 13:09:38;;;;;;;5.57;4.78;;;;;;;;;;5074848;28;20027;-75
2022/03/10 13:12:04;;;;;;;7.13;5.20;;;;;;;;;;5074228;28;20034;-74
2022/03/10 13:14:29;;;;;;;9.02;7.15;;;;;;;;;;5076320;28;20036;-75
2022/03/10 13:16:55;;;;;;;8.85;5.70;;;;;;;;;;5075239;28;20527;-74
2022/03/10 13:19:20;;;;;;;11.90;6.95;;;;;;;;;;5073647;28;20027;-75
2022/03/10 13:21:54;;;;;;;13.80;8.20;;;;;;;;;;5073408;28;20044;-74
2022/03/10 13:24:40;;;;;;;12.50;8.43;;;;;;;;;;5077440;28;20027;-75
2022/03/10 13:27:05;;;;;;;8.30;6.13;;;;;;;;;;5073205;28;20027;-74
2022/03/10 13:29:31;;;;;;;9.32;7.22;;;;;;;;;;5073509;28;20441;-75
2022/03/10 13:31:56;;;;;;;9.43;7.03;;;;;;;;;;5071651;28;20035;-74
2022/03/10 13:34:23;;;;;;;12.65;8.25;;;;;;;;;;5074996;28;20068;-75
2022/03/10 13:36:49;;;;;;;12.60;7.85;;;;;;;;;;5071898;28;20032;-73
2022/03/10 13:39:14;;;;;;;12.98;8.68;;;;;;;;;;5073464;28;20020;-75
2022/03/10 13:41:42;;;;;;;9.13;6.78;;;;;;;;;;5074159;28;20023;-74
2022/03/10 13:44:17;;;;;;;9.77;7.07;;;;;;;;;;5074788;28;20027;-74
2022/03/10 13:46:43;;;;;;;32.70;17.50;;;;;;;;;;5073406;28;20334;-75
2022/03/10 13:49:22;;;;;;;21.20;12.20;;;;;;;;;;5074247;28;20076;-75
2022/03/10 13:51:48;;;;;;;23.02;14.30;;;;;;;;;;5076187;28;20023;-74
2022/03/10 13:54:14;;;;;;;10.35;7.97;;;;;;;;;;5082338;28;20027;-74
2022/03/10 13:56:44;;;;;;;7.30;5.30;;;;;;;;;;5076351;28;20032;-73
2022/03/10 13:59:09;;;;;;;8.23;6.40;;;;;;;;;;5087138;28;20024;-74
2022/03/10 14:01:39;;;;;;;9.73;6.68;;;;;;;;;;5083077;28;20481;-75
2022/03/10 14:04:13;;;;;;;11.75;8.38;;;;;;;;;;5084774;28;20074;-73
2022/03/10 14:06:45;;;;;;;13.75;8.00;;;;;;;;;;5085780;28;20038;-74
2022/03/10 14:09:18;;;;;;;10.18;7.70;;;;;;;;;;5078753;28;20030;-76
2022/03/10 14:11:43;;;;;;;10.77;7.20;;;;;;;;;;5071614;28;20027;-74
2022/03/10 14:14:09;;;;;;;10.52;7.47;;;;;;;;;;5072465;28;20040;-75
2022/03/10 14:16:34;;;;;;;9.20;7.80;;;;;;;;;;5078101;28;20046;-73
2022/03/10 14:19:02;;;;;;;9.13;6.60;;;;;;;;;;5081486;28;20066;-74